Time;durP1;ratioP1;P1;durP2;ratioP2;P2;SDS_P1;SDS_P2;PMS_P1;PMS_P2;Temp;Humidity;BMP_temperature;BMP_pressure;BME280_temperature;BME280_humidity;BME280_pressure;Samples;Min_cycle;Max_cycle;Signal;HPM_P1;HPM_P2
2023/10/27 00:01:29;;;;;;;;;;;;;;;17.07;68.48;94999.97;4218761;28;6496;-65
2023/10/27 00:03:32;;;;;;;;;;;;;;;17.07;68.41;94986.63;4218592;28;5655;-65
2023/10/27 00:05:35;;;;;;;;;;;;;;;17.08;68.32;94990.09;4218483;28;5667;-64
2023/10/27 00:07:36;;;;;;;;;;;;;;;17.08;68.64;94995.44;4218523;28;5699;-64
2023/10/27 00:09:41;;;;;;;;;;;;;;;17.08;68.49;94990.09;4217256;28;5659;-64
2023/10/27 00:11:44;;;;;;;;;;;;;;;17.01;68.37;94984.28;4217208;28;5659;-64
2023/10/27 00:13:47;;;;;;;;;;;;;;;16.90;68.47;94983.56;4218235;28;5695;-64
2023/10/27 00:15:50;;;;;;;;;;;;;;;16.88;68.59;94983.81;4218335;28;5676;-64
2023/10/27 00:17:53;;;;;;;;;;;;;;;16.83;68.85;94983.84;4218253;28;5663;-64
2023/10/27 00:19:56;;;;;;;;;;;;;;;16.82;68.73;94982.25;4217842;28;5667;-64
2023/10/27 00:21:59;;;;;;;;;;;;;;;16.86;69.00;94987.81;4218467;28;5853;-64
2023/10/27 00:24:02;;;;;;;;;;;;;;;16.88;68.92;94985.69;4218128;28;7394;-64
2023/10/27 00:26:06;;;;;;;;;;;;;;;16.91;68.99;94990.47;4218192;28;5088;-64
2023/10/27 00:28:09;;;;;;;;;;;;;;;16.92;68.94;94986.72;4218274;28;5786;-64
2023/10/27 00:30:13;;;;;;;;;;;;;;;16.95;69.06;94990.72;4218271;28;5696;-64
2023/10/27 00:32:15;;;;;;;;;;;;;;;16.97;68.91;94994.69;4218220;28;5663;-64
2023/10/27 00:34:18;;;;;;;;;;;;;;;16.97;68.91;94992.03;4217961;28;5682;-64
2023/10/27 00:36:22;;;;;;;;;;;;;;;16.98;69.05;94995.50;4217992;28;5664;-64
2023/10/27 00:38:24;;;;;;;;;;;;;;;16.98;68.69;94995.50;4217958;28;5679;-65
2023/10/27 00:40:27;;;;;;;;;;;;;;;16.97;68.66;94993.91;4218136;28;5664;-65
2023/10/27 00:42:32;;;;;;;;;;;;;;;16.95;68.97;94991.50;4217968;28;6613;-65
2023/10/27 00:44:35;;;;;;;;;;;;;;;16.96;68.96;94992.31;4217867;28;6371;-65
2023/10/27 00:46:39;;;;;;;;;;;;;;;16.98;68.89;94992.81;4218043;28;5663;-65
2023/10/27 00:48:42;;;;;;;;;;;;;;;16.97;68.90;94988.56;4217599;28;5742;-65
2023/10/27 00:50:45;;;;;;;;;;;;;;;16.99;68.90;94991.75;4217727;28;5670;-64
2023/10/27 00:52:49;;;;;;;;;;;;;;;17.00;68.93;94982.69;4217849;28;5802;-65
2023/10/27 00:54:53;;;;;;;;;;;;;;;17.01;68.73;94986.94;4217422;28;5783;-64
2023/10/27 00:56:57;;;;;;;;;;;;;;;17.00;68.91;94986.16;4217795;28;5661;-64
2023/10/27 00:59:02;;;;;;;;;;;;;;;17.00;68.94;94982.69;4217694;28;5853;-64
2023/10/27 01:01:07;;;;;;;;;;;;;;;16.99;68.77;94981.91;4217745;28;6375;-64
2023/10/27 01:03:10;;;;;;;;;;;;;;;17.02;68.84;94975.19;4217696;28;5687;-64
2023/10/27 01:05:12;;;;;;;;;;;;;;;17.01;68.86;94985.06;4208750;28;5782;-65
2023/10/27 01:07:15;;;;;;;;;;;;;;;17.03;68.66;94977.59;4216647;28;5674;-65
2023/10/27 01:09:18;;;;;;;;;;;;;;;17.04;68.72;94970.38;4217669;28;5765;-64
2023/10/27 01:11:22;;;;;;;;;;;;;;;17.04;68.55;94968.50;4215884;28;5683;-65
2023/10/27 01:13:25;;;;;;;;;;;;;;;17.03;68.39;94972.25;4217474;28;5793;-65
2023/10/27 01:15:30;;;;;;;;;;;;;;;17.04;68.56;94981.06;4217463;28;5626;-65
2023/10/27 01:17:32;;;;;;;;;;;;;;;17.04;68.62;94967.72;4216756;28;5659;-65
2023/10/27 01:19:36;;;;;;;;;;;;;;;17.03;68.58;94963.44;4213187;28;5678;-65
2023/10/27 01:21:39;;;;;;;;;;;;;;;17.04;68.46;94962.38;4204985;28;5679;-65
2023/10/27 01:23:43;;;;;;;;;;;;;;;17.03;68.57;94960.78;4217033;28;5692;-65
2023/10/27 01:25:46;;;;;;;;;;;;;;;17.04;68.51;94959.69;4217233;28;5667;-65
2023/10/27 01:27:49;;;;;;;;;;;;;;;17.05;68.43;94958.63;4217446;28;5663;-65
2023/10/27 01:29:52;;;;;;;;;;;;;;;17.05;68.27;94953.28;4217360;28;5682;-64
2023/10/27 01:31:55;;;;;;;;;;;;;;;17.06;68.36;94960.22;4217522;28;5675;-65
2023/10/27 01:33:58;;;;;;;;;;;;;;;17.08;68.41;94964.19;4217291;28;5750;-64
2023/10/27 01:36:01;;;;;;;;;;;;;;;17.05;68.12;94961.28;4217290;28;5735;-64
2023/10/27 01:38:04;;;;;;;;;;;;;;;17.03;68.10;94958.91;4217365;28;5660;-64
2023/10/27 01:40:10;;;;;;;;;;;;;;;17.02;68.27;94951.16;4217143;28;5659;-65
2023/10/27 01:42:12;;;;;;;;;;;;;;;17.01;68.19;94954.91;4209270;28;5638;-65
2023/10/27 01:44:14;;;;;;;;;;;;;;;16.97;68.05;94951.19;4217467;28;6367;-65
2023/10/27 01:46:17;;;;;;;;;;;;;;;16.97;68.07;94953.88;4216895;28;5667;-65
2023/10/27 01:48:20;;;;;;;;;;;;;;;16.99;68.29;94962.38;4213617;28;5676;-64
2023/10/27 01:50:23;;;;;;;;;;;;;;;16.99;68.27;94959.72;4214871;28;5693;-65
2023/10/27 01:52:25;;;;;;;;;;;;;;;16.99;68.21;94963.22;4215057;28;5750;-65
2023/10/27 01:54:28;;;;;;;;;;;;;;;17.00;68.36;94974.69;4211162;28;6501;-65
2023/10/27 01:56:33;;;;;;;;;;;;;;;16.98;68.17;94984.81;4217334;28;5663;-65
2023/10/27 01:58:40;;;;;;;;;;;;;;;16.94;68.05;94976.56;4217144;28;5689;-64
2023/10/27 02:00:43;;;;;;;;;;;;;;;16.88;67.88;94967.81;4217149;28;5667;-65
2023/10/27 02:02:46;;;;;;;;;;;;;;;16.84;68.10;94992.66;4217027;28;5829;-65
2023/10/27 02:04:49;;;;;;;;;;;;;;;16.74;67.98;94996.16;4216799;28;5784;-64
2023/10/27 02:06:52;;;;;;;;;;;;;;;16.61;67.69;94986.06;4216933;28;5645;-65
2023/10/27 02:08:55;;;;;;;;;;;;;;;16.46;66.86;95002.16;4217155;28;5659;-65
2023/10/27 02:10:58;;;;;;;;;;;;;;;16.25;66.52;94988.09;4216783;28;5780;-64
2023/10/27 02:13:03;;;;;;;;;;;;;;;16.11;66.75;95003.88;4216925;28;5743;-64
2023/10/27 02:15:08;;;;;;;;;;;;;;;16.03;67.13;94999.09;4216953;28;5688;-65
2023/10/27 02:17:11;;;;;;;;;;;;;;;15.98;67.40;94999.91;4217078;28;5691;-65
2023/10/27 02:19:14;;;;;;;;;;;;;;;15.97;67.43;94993.00;4210867;28;5470;-64
2023/10/27 02:21:17;;;;;;;;;;;;;;;15.94;67.33;94985.50;4220389;28;8185;-64
2023/10/27 02:23:19;;;;;;;;;;;;;;;15.94;67.24;94998.84;4220035;28;5750;-65
2023/10/27 02:25:22;;;;;;;;;;;;;;;15.92;66.99;94995.66;4219857;28;5805;-64
2023/10/27 02:27:24;;;;;;;;;;;;;;;15.93;67.40;94999.13;4219928;28;5816;-64
2023/10/27 02:29:28;;;;;;;;;;;;;;;15.94;66.97;95003.38;4220042;28;5667;-64
2023/10/27 02:31:31;;;;;;;;;;;;;;;15.93;67.14;95007.91;4220085;28;5830;-64
2023/10/27 02:33:34;;;;;;;;;;;;;;;15.98;67.20;95009.78;4220002;28;5675;-65
2023/10/27 02:35:37;;;;;;;;;;;;;;;15.98;66.98;95015.91;4219864;28;5659;-64
2023/10/27 02:37:40;;;;;;;;;;;;;;;16.01;67.06;95014.56;4220036;28;5712;-64
2023/10/27 02:39:43;;;;;;;;;;;;;;;16.06;67.00;95022.53;4219962;28;5738;-65
2023/10/27 02:41:46;;;;;;;;;;;;;;;16.08;67.00;95027.59;4220126;28;6355;-64
2023/10/27 02:43:49;;;;;;;;;;;;;;;16.11;66.69;95030.53;4219839;28;5663;-64
2023/10/27 02:46:02;;;;;;;;;;;;;;;16.13;66.90;95031.06;4219977;28;5645;-64
2023/10/27 02:48:05;;;;;;;;;;;;;;;16.14;66.72;95037.19;4219736;28;5847;-65
2023/10/27 02:50:08;;;;;;;;;;;;;;;16.16;66.70;95043.84;4211540;28;5687;-64
2023/10/27 02:52:12;;;;;;;;;;;;;;;16.16;66.41;95040.38;4210667;28;5867;-66
2023/10/27 02:54:15;;;;;;;;;;;;;;;16.17;66.43;95049.97;4210065;28;5664;-65
2023/10/27 02:56:17;;;;;;;;;;;;;;;16.17;66.54;95056.09;4215629;28;5667;-65
2023/10/27 02:58:20;;;;;;;;;;;;;;;16.19;66.51;95059.28;4212682;28;5649;-65
2023/10/27 03:00:23;;;;;;;;;;;;;;;16.16;66.37;95069.69;4211633;28;5882;-65
2023/10/27 03:02:28;;;;;;;;;;;;;;;16.12;66.49;95071.31;4206557;28;5919;-65
2023/10/27 03:04:31;;;;;;;;;;;;;;;16.10;66.56;95079.59;4208976;28;5787;-65
2023/10/27 03:06:33;;;;;;;;;;;;;;;16.09;66.61;95079.84;4212809;28;5118;-65
2023/10/27 03:08:36;;;;;;;;;;;;;;;16.10;66.52;95082.25;4208037;28;5847;-65
2023/10/27 03:10:39;;;;;;;;;;;;;;;16.11;66.41;95094.50;4216178;28;5767;-64
2023/10/27 03:12:41;;;;;;;;;;;;;;;16.10;66.30;95092.91;4209331;28;5813;-64
2023/10/27 03:14:44;;;;;;;;;;;;;;;16.12;66.10;95089.97;4214773;28;5875;-64
2023/10/27 03:16:47;;;;;;;;;;;;;;;16.12;66.12;95098.78;4212164;28;6642;-65
2023/10/27 03:18:51;;;;;;;;;;;;;;;16.15;65.95;95111.56;4212916;28;5673;-65
2023/10/27 03:20:56;;;;;;;;;;;;;;;16.17;65.74;95097.94;4215083;28;5742;-65
2023/10/27 03:22:59;;;;;;;;;;;;;;;16.16;65.58;95101.69;4207644;28;5814;-66
2023/10/27 03:25:01;;;;;;;;;;;;;;;16.15;65.60;95103.56;4210551;28;5874;-64
2023/10/27 03:27:04;;;;;;;;;;;;;;;16.16;65.11;95115.81;4211531;28;5689;-65
2023/10/27 03:29:07;;;;;;;;;;;;;;;16.11;65.07;95117.69;4205465;28;5704;-65
2023/10/27 03:31:12;;;;;;;;;;;;;;;16.11;64.79;95113.16;4219084;28;5676;-65
2023/10/27 03:33:16;;;;;;;;;;;;;;;16.09;64.04;95133.97;4212370;28;5683;-64
2023/10/27 03:35:21;;;;;;;;;;;;;;;16.06;64.37;95147.00;4205900;28;5776;-65
2023/10/27 03:37:24;;;;;;;;;;;;;;;16.07;64.35;95152.06;4210996;28;5997;-65
2023/10/27 03:39:26;;;;;;;;;;;;;;;16.08;64.41;95159.00;4214295;28;5868;-65
2023/10/27 03:41:29;;;;;;;;;;;;;;;16.10;64.35;95172.09;4216672;28;5696;-65
2023/10/27 03:43:34;;;;;;;;;;;;;;;16.10;64.24;95164.88;4213754;28;5668;-65
2023/10/27 03:45:37;;;;;;;;;;;;;;;16.12;64.22;95167.28;4210977;28;5690;-64
2023/10/27 03:47:40;;;;;;;;;;;;;;;16.12;64.09;95176.06;4212513;28;5706;-64
2023/10/27 03:49:45;;;;;;;;;;;;;;;16.12;63.61;95186.75;4210172;28;5882;-64
2023/10/27 03:51:50;;;;;;;;;;;;;;;16.13;63.26;95198.19;4215807;28;5655;-64
2023/10/27 03:53:54;;;;;;;;;;;;;;;16.15;63.39;95202.19;4210985;28;5667;-64
2023/10/27 03:55:57;;;;;;;;;;;;;;;16.15;63.28;95196.88;4209465;28;5667;-64
2023/10/27 03:58:13;;;;;;;;;;;;;;;16.14;62.36;95194.47;4214392;28;5819;-65
2023/10/27 04:00:17;;;;;;;;;;;;;;;16.09;62.21;95202.47;4209310;28;5835;-64
2023/10/27 04:02:20;;;;;;;;;;;;;;;16.09;62.27;95205.94;4212063;28;5807;-64
2023/10/27 04:04:23;;;;;;;;;;;;;;;16.11;61.94;95217.13;4218310;28;5671;-65
2023/10/27 04:06:26;;;;;;;;;;;;;;;16.12;61.51;95218.72;4218748;28;5671;-65
2023/10/27 04:08:31;;;;;;;;;;;;;;;16.10;61.65;95226.19;4218406;28;5679;-65
2023/10/27 04:10:35;;;;;;;;;;;;;;;16.12;61.54;95225.94;4218130;28;5746;-66
2023/10/27 04:12:58;;;;;;;;;;;;;;;16.14;61.39;95237.91;4217893;28;5626;-65
2023/10/27 04:15:02;;;;;;;;;;;;;;;16.15;61.27;95239.53;4218453;28;5117;-64
2023/10/27 04:17:04;;;;;;;;;;;;;;;16.16;61.14;95245.66;4218183;28;5797;-64
2023/10/27 04:19:07;;;;;;;;;;;;;;;16.15;60.88;95250.19;4218031;28;5676;-64
2023/10/27 04:21:10;;;;;;;;;;;;;;;16.13;60.28;95259.53;4218086;28;5754;-65
2023/10/27 04:23:14;;;;;;;;;;;;;;;16.10;60.21;95258.19;4218148;28;5689;-64
2023/10/27 04:25:17;;;;;;;;;;;;;;;16.13;59.32;95264.84;4218527;28;5679;-65
2023/10/27 04:27:20;;;;;;;;;;;;;;;16.11;59.19;95274.97;4218301;28;5781;-65
2023/10/27 04:29:23;;;;;;;;;;;;;;;16.11;59.00;95281.13;4218188;28;5758;-65
2023/10/27 04:31:26;;;;;;;;;;;;;;;16.11;59.07;95281.13;4218232;28;5699;-64
2023/10/27 04:33:29;;;;;;;;;;;;;;;16.13;59.22;95284.31;4218039;28;5786;-64
2023/10/27 04:35:32;;;;;;;;;;;;;;;16.17;58.98;95288.03;4217828;28;5667;-64
2023/10/27 04:37:36;;;;;;;;;;;;;;;16.18;59.02;95286.16;4218029;28;5671;-64
2023/10/27 04:39:39;;;;;;;;;;;;;;;16.17;58.61;95282.69;4217955;28;5679;-64
2023/10/27 04:41:42;;;;;;;;;;;;;;;16.19;58.63;95279.78;4217141;28;5671;-64
2023/10/27 04:43:45;;;;;;;;;;;;;;;16.20;58.69;95284.88;4217892;28;5687;-65
2023/10/27 04:45:48;;;;;;;;;;;;;;;16.21;58.35;95285.66;4218079;28;5659;-64
2023/10/27 04:47:51;;;;;;;;;;;;;;;16.22;58.35;95282.72;4218011;28;5675;-64
2023/10/27 04:49:54;;;;;;;;;;;;;;;16.21;58.35;95283.78;4217595;28;5679;-64
2023/10/27 04:51:57;;;;;;;;;;;;;;;16.22;58.20;95284.59;4217761;28;5664;-64
2023/10/27 04:54:00;;;;;;;;;;;;;;;16.18;57.83;95278.16;4217705;28;6604;-65
2023/10/27 04:56:03;;;;;;;;;;;;;;;16.18;57.92;95272.84;4217781;28;6318;-65
2023/10/27 04:58:08;;;;;;;;;;;;;;;16.19;57.63;95274.44;4217529;28;6360;-64
2023/10/27 05:00:12;;;;;;;;;;;;;;;16.19;57.45;95280.56;4217507;28;6919;-64
2023/10/27 05:02:15;;;;;;;;;;;;;;;16.19;57.42;95272.56;4209617;28;5747;-64
2023/10/27 05:04:18;;;;;;;;;;;;;;;16.19;57.38;95277.91;4215836;28;5679;-63
2023/10/27 05:06:21;;;;;;;;;;;;;;;16.19;57.36;95283.22;4213227;28;5830;-64
2023/10/27 05:08:24;;;;;;;;;;;;;;;16.21;57.21;95275.78;4217513;28;5683;-65
2023/10/27 05:10:27;;;;;;;;;;;;;;;16.22;57.22;95274.72;4217298;28;5655;-64
2023/10/27 05:12:30;;;;;;;;;;;;;;;16.22;57.10;95272.06;4217720;28;5782;-64
2023/10/27 05:14:34;;;;;;;;;;;;;;;16.21;57.18;95270.47;4217479;28;5664;-64
2023/10/27 05:16:37;;;;;;;;;;;;;;;16.25;57.16;95270.72;4217413;28;6173;-65
2023/10/27 05:18:40;;;;;;;;;;;;;;;16.26;57.02;95273.13;4217590;28;5653;-64
2023/10/27 05:20:43;;;;;;;;;;;;;;;16.27;56.90;95274.72;4217206;28;5773;-65
2023/10/27 05:22:45;;;;;;;;;;;;;;;16.29;56.88;95277.13;4217561;28;5762;-65
2023/10/27 05:24:48;;;;;;;;;;;;;;;16.29;56.59;95285.13;4217333;28;5780;-65
2023/10/27 05:26:51;;;;;;;;;;;;;;;16.26;56.34;95273.13;4217407;28;5683;-64
2023/10/27 05:28:54;;;;;;;;;;;;;;;16.24;56.63;95269.94;4217335;28;5679;-64
2023/10/27 05:31:02;;;;;;;;;;;;;;;16.25;56.60;95276.84;4217178;28;6165;-63
2023/10/27 05:33:05;;;;;;;;;;;;;;;16.26;56.84;95278.44;4217381;28;5762;-64
2023/10/27 05:35:09;;;;;;;;;;;;;;;16.27;56.50;95280.06;4217038;28;6351;-64
2023/10/27 05:37:11;;;;;;;;;;;;;;;16.26;56.50;95291.00;4217178;28;5687;-64
2023/10/27 05:39:17;;;;;;;;;;;;;;;16.25;56.55;95292.84;4217166;28;5682;-64
2023/10/27 05:41:19;;;;;;;;;;;;;;;16.24;56.36;95285.94;4217227;28;5695;-64
2023/10/27 05:43:23;;;;;;;;;;;;;;;16.23;56.51;95287.00;4217052;28;5696;-65
2023/10/27 05:45:26;;;;;;;;;;;;;;;16.23;56.63;95287.00;4216927;28;6462;-64
2023/10/27 05:47:30;;;;;;;;;;;;;;;16.23;56.59;95284.31;4217284;28;5676;-65
2023/10/27 05:49:33;;;;;;;;;;;;;;;16.22;56.71;95293.38;4216733;28;5741;-64
2023/10/27 05:51:37;;;;;;;;;;;;;;;16.22;56.59;95290.72;4217001;28;5699;-65
2023/10/27 05:53:40;;;;;;;;;;;;;;;16.21;56.63;95291.00;4222359;28;5672;-65
2023/10/27 05:55:44;;;;;;;;;;;;;;;16.23;56.56;95288.84;4222502;28;5762;-65
2023/10/27 05:57:47;;;;;;;;;;;;;;;16.25;56.70;95292.84;4222591;28;5691;-65
2023/10/27 05:59:50;;;;;;;;;;;;;;;16.25;56.58;95292.06;4222631;28;5695;-65
2023/10/27 06:01:54;;;;;;;;;;;;;;;16.21;56.72;95291.78;4222600;28;6356;-64
2023/10/27 06:04:14;;;;;;;;;;;;;;;16.22;56.75;95303.25;4222612;28;5668;-64
2023/10/27 06:06:17;;;;;;;;;;;;;;;16.21;56.83;95307.00;4222325;28;5934;-64
2023/10/27 06:08:20;;;;;;;;;;;;;;;16.23;56.82;95304.84;4222273;28;7297;-64
2023/10/27 06:10:23;;;;;;;;;;;;;;;16.24;56.96;95315.25;4217595;28;5957;-64
2023/10/27 06:12:26;;;;;;;;;;;;;;;16.22;56.90;95304.06;4212356;28;5700;-64
2023/10/27 06:14:29;;;;;;;;;;;;;;;16.23;57.21;95310.19;4221412;28;5634;-64
2023/10/27 06:16:32;;;;;;;;;;;;;;;16.22;57.25;95297.94;4221471;28;5675;-64
2023/10/27 06:18:35;;;;;;;;;;;;;;;16.20;57.17;95306.19;4218329;28;5687;-64
2023/10/27 06:20:39;;;;;;;;;;;;;;;16.19;57.27;95299.22;4222274;28;6480;-64
2023/10/27 06:22:43;;;;;;;;;;;;;;;16.19;57.26;95303.75;4222590;28;6348;-64
2023/10/27 06:24:47;;;;;;;;;;;;;;;16.16;56.96;95302.44;4222595;28;5806;-64
2023/10/27 06:26:50;;;;;;;;;;;;;;;16.16;57.10;95307.75;4222509;28;5784;-64
2023/10/27 06:28:53;;;;;;;;;;;;;;;16.18;57.10;95313.63;4222383;28;5746;-64
2023/10/27 06:30:56;;;;;;;;;;;;;;;16.16;57.01;95305.09;4222412;28;5675;-64
2023/10/27 06:32:59;;;;;;;;;;;;;;;16.17;57.17;95312.03;4222404;28;5656;-64
2023/10/27 06:35:03;;;;;;;;;;;;;;;16.16;56.79;95309.63;4221983;28;5686;-64
2023/10/27 06:37:07;;;;;;;;;;;;;;;16.16;56.93;95320.28;4222251;28;5671;-64
2023/10/27 06:39:10;;;;;;;;;;;;;;;16.15;56.73;95311.50;4221907;28;5812;-64
2023/10/27 06:41:13;;;;;;;;;;;;;;;16.15;56.77;95316.84;4219160;28;5783;-65
2023/10/27 06:43:16;;;;;;;;;;;;;;;16.15;56.85;95324.03;4222379;28;5652;-64
2023/10/27 06:45:19;;;;;;;;;;;;;;;16.17;56.83;95328.03;4222203;28;5692;-65
2023/10/27 06:47:23;;;;;;;;;;;;;;;16.21;56.65;95336.31;4222079;28;6318;-65
2023/10/27 06:49:26;;;;;;;;;;;;;;;16.21;56.66;95323.78;4221684;28;5657;-64
2023/10/27 06:51:28;;;;;;;;;;;;;;;16.23;56.79;95327.00;4222295;28;6029;-64
2023/10/27 06:53:33;;;;;;;;;;;;;;;16.21;56.33;95336.31;4221825;28;7049;-65
2023/10/27 06:55:36;;;;;;;;;;;;;;;16.21;56.36;95339.78;4221912;28;5668;-64
2023/10/27 06:57:39;;;;;;;;;;;;;;;16.23;56.38;95342.19;4221046;28;5707;-65
2023/10/27 06:59:42;;;;;;;;;;;;;;;16.24;56.46;95347.25;4221653;28;5790;-65
2023/10/27 07:01:45;;;;;;;;;;;;;;;16.21;56.19;95334.44;4221122;28;5746;-65
2023/10/27 07:03:50;;;;;;;;;;;;;;;16.22;56.18;95341.38;4219011;28;5683;-65
2023/10/27 07:05:53;;;;;;;;;;;;;;;16.21;56.11;95346.97;4216708;28;5680;-65
2023/10/27 07:07:56;;;;;;;;;;;;;;;16.18;55.75;95340.28;4218776;28;6341;-65
2023/10/27 07:09:59;;;;;;;;;;;;;;;16.17;55.74;95344.03;4217433;28;5628;-65
2023/10/27 07:12:03;;;;;;;;;;;;;;;16.17;55.66;95345.91;4218482;28;5668;-65
2023/10/27 07:14:06;;;;;;;;;;;;;;;16.17;55.77;95354.69;4219788;28;5667;-63
2023/10/27 07:16:09;;;;;;;;;;;;;;;16.20;55.73;95358.72;4213777;28;5765;-64
2023/10/27 07:18:12;;;;;;;;;;;;;;;16.23;55.88;95363.50;4211081;28;5867;-64
2023/10/27 07:20:14;;;;;;;;;;;;;;;16.26;55.87;95358.44;4215107;28;5671;-65
2023/10/27 07:22:19;;;;;;;;;;;;;;;16.31;55.93;95365.69;4224927;28;5638;-65
2023/10/27 07:24:22;;;;;;;;;;;;;;;16.33;56.01;95366.22;4226013;28;5663;-64
2023/10/27 07:26:27;;;;;;;;;;;;;;;16.35;56.33;95376.59;4218420;28;5651;-65
2023/10/27 07:28:30;;;;;;;;;;;;;;;16.33;56.32;95370.75;4219122;28;5886;-64
2023/10/27 07:30:33;;;;;;;;;;;;;;;16.34;56.58;95375.00;4218997;28;5724;-65
2023/10/27 07:32:36;;;;;;;;;;;;;;;16.33;56.62;95374.22;4218859;28;5675;-65
2023/10/27 07:34:39;;;;;;;;;;;;;;;16.32;56.81;95366.47;4218987;28;5659;-65
2023/10/27 07:36:42;;;;;;;;;;;;;;;16.35;57.11;95381.94;4219048;28;5708;-65
2023/10/27 07:38:45;;;;;;;;;;;;;;;16.37;56.83;95377.16;4214509;28;5680;-65
2023/10/27 07:40:47;;;;;;;;;;;;;;;16.37;57.07;95385.13;4218280;28;5841;-65
2023/10/27 07:42:52;;;;;;;;;;;;;;;16.34;57.11;95380.34;4216161;28;5667;-65
2023/10/27 07:44:55;;;;;;;;;;;;;;;16.33;57.15;95378.75;4217019;28;5765;-65
2023/10/27 07:47:01;;;;;;;;;;;;;;;16.33;57.20;95384.06;4219120;28;5940;-64
2023/10/27 07:49:04;;;;;;;;;;;;;;;16.33;57.27;95384.88;4217911;28;5970;-65
2023/10/27 07:51:07;;;;;;;;;;;;;;;16.35;57.31;95393.41;4218531;28;5668;-65
2023/10/27 07:53:10;;;;;;;;;;;;;;;16.34;57.54;95394.47;4218500;28;5659;-65
2023/10/27 07:55:13;;;;;;;;;;;;;;;16.35;57.63;95397.94;4210625;28;5077;-65
2023/10/27 07:57:16;;;;;;;;;;;;;;;16.38;57.69;95405.41;4214792;28;7701;-65
2023/10/27 07:59:21;;;;;;;;;;;;;;;16.37;57.55;95401.16;4212052;28;5683;-65
2023/10/27 08:01:24;;;;;;;;;;;;;;;16.39;58.00;95407.81;4218564;28;6374;-66
2023/10/27 08:03:28;;;;;;;;;;;;;;;16.41;57.82;95404.88;4216199;28;5680;-65
2023/10/27 08:05:31;;;;;;;;;;;;;;;16.41;57.96;95403.00;4216974;28;6719;-65
2023/10/27 08:07:36;;;;;;;;;;;;;;;16.41;57.91;95404.88;4217857;28;5767;-64
2023/10/27 08:09:39;;;;;;;;;;;;;;;16.41;58.01;95412.88;4215446;28;5684;-64
2023/10/27 08:11:42;;;;;;;;;;;;;;;16.38;58.02;95416.09;4218334;28;5663;-65
2023/10/27 08:13:45;;;;;;;;;;;;;;;16.36;57.94;95419.00;4215023;28;5783;-65
2023/10/27 08:15:50;;;;;;;;;;;;;;;16.37;57.78;95427.81;4213050;28;5877;-64
2023/10/27 08:17:53;;;;;;;;;;;;;;;16.34;57.71;95425.69;4211588;28;5881;-64
2023/10/27 08:19:55;;;;;;;;;;;;;;;16.35;57.91;95429.94;4215662;28;5665;-64
2023/10/27 08:21:58;;;;;;;;;;;;;;;16.38;58.03;95424.88;4215168;28;5766;-62
2023/10/27 08:24:01;;;;;;;;;;;;;;;16.39;58.33;95431.00;4214492;28;5822;-68
2023/10/27 08:26:04;;;;;;;;;;;;;;;16.41;58.17;95437.69;4210218;28;5791;-61
2023/10/27 08:28:08;;;;;;;;;;;;;;;16.41;58.10;95426.22;4208840;28;5672;-65
2023/10/27 08:30:12;;;;;;;;;;;;;;;16.39;58.16;95431.00;4210736;28;5660;-67
2023/10/27 08:32:16;;;;;;;;;;;;;;;16.37;57.84;95436.63;4208947;28;5728;-66
2023/10/27 08:34:21;;;;;;;;;;;;;;;16.36;58.09;95436.88;4218252;28;5695;-63
2023/10/27 08:36:24;;;;;;;;;;;;;;;16.35;58.06;95440.63;4217911;28;5683;-62
2023/10/27 08:38:29;;;;;;;;;;;;;;;16.37;58.18;95433.16;4217463;28;6375;-62
2023/10/27 08:40:32;;;;;;;;;;;;;;;16.39;58.04;95436.34;4216263;28;5659;-67
2023/10/27 08:42:36;;;;;;;;;;;;;;;16.42;58.15;95435.81;4210865;28;5742;-67
2023/10/27 08:44:41;;;;;;;;;;;;;;;16.44;58.03;95441.72;4205382;28;5656;-66
2023/10/27 08:46:45;;;;;;;;;;;;;;;16.47;58.07;95449.19;4216095;28;5683;-65
2023/10/27 08:48:49;;;;;;;;;;;;;;;16.52;57.97;95449.19;4217689;28;5675;-66
2023/10/27 08:50:57;;;;;;;;;;;;;;;16.53;57.98;95448.13;4216623;28;6369;-65
2023/10/27 08:52:59;;;;;;;;;;;;;;;16.55;58.13;95454.81;4218031;28;5810;-67
2023/10/27 08:55:03;;;;;;;;;;;;;;;16.61;58.05;95450.28;4209675;28;6499;-64
2023/10/27 08:57:08;;;;;;;;;;;;;;;16.64;58.16;95455.09;4213426;28;5810;-64
2023/10/27 08:59:11;;;;;;;;;;;;;;;16.67;58.08;95467.91;4218352;28;5660;-63
2023/10/27 09:01:14;;;;;;;;;;;;;;;16.70;58.04;95470.09;4216840;28;5681;-65
2023/10/27 09:03:18;;;;;;;;;;;;;;;16.70;58.15;95458.59;4215324;28;5774;-63
2023/10/27 09:05:24;;;;;;;;;;;;;;;16.70;58.36;95459.41;4211904;28;5691;-63
2023/10/27 09:07:27;;;;;;;;;;;;;;;16.72;58.25;95469.81;4215137;28;5668;-65
2023/10/27 09:09:31;;;;;;;;;;;;;;;16.72;58.49;95470.63;4213233;28;5782;-63
2023/10/27 09:11:40;;;;;;;;;;;;;;;16.73;58.38;95466.06;4211365;28;5797;-64
2023/10/27 09:13:43;;;;;;;;;;;;;;;16.71;58.41;95477.03;4211831;28;5671;-64
2023/10/27 09:15:46;;;;;;;;;;;;;;;16.70;58.60;95479.94;4215750;28;5093;-64
2023/10/27 09:17:55;;;;;;;;;;;;;;;16.69;58.66;95481.81;4208720;28;5829;-64
2023/10/27 09:20:05;;;;;;;;;;;;;;;16.69;58.73;95481.81;4214783;28;5732;-64
2023/10/27 09:22:18;;;;;;;;;;;;;;;16.68;58.49;95482.09;4216191;28;5638;-63
2023/10/27 09:24:22;;;;;;;;;;;;;;;16.66;58.49;95481.53;4214932;28;5738;-66
2023/10/27 09:26:28;;;;;;;;;;;;;;;16.67;58.66;95481.25;4216939;28;5659;-66
2023/10/27 09:28:31;;;;;;;;;;;;;;;16.71;58.70;95489.56;4215825;28;5924;-66
2023/10/27 09:30:37;;;;;;;;;;;;;;;16.74;58.80;95489.03;4217427;28;5659;-66
2023/10/27 09:32:40;;;;;;;;;;;;;;;16.75;58.64;95494.09;4216905;28;5759;-67
2023/10/27 09:34:43;;;;;;;;;;;;;;;16.78;58.70;95496.25;4213834;28;5801;-65
2023/10/27 09:36:48;;;;;;;;;;;;;;;16.80;58.83;95491.47;4209411;28;5696;-63
2023/10/27 09:38:54;;;;;;;;;;;;;;;16.80;58.66;95475.44;4207153;28;5871;-62
2023/10/27 09:41:05;;;;;;;;;;;;;;;16.83;58.91;95474.91;4213349;28;5664;-65
2023/10/27 09:43:09;;;;;;;;;;;;;;;16.87;58.82;95481.34;4204989;28;5754;-64
2023/10/27 09:45:13;;;;;;;;;;;;;;;16.87;58.57;95485.84;4208224;28;5703;-65
2023/10/27 09:47:24;;;;;;;;;;;;;;;16.83;58.26;95482.91;4204694;28;5761;-64
2023/10/27 09:49:33;;;;;;;;;;;;;;;16.82;58.27;95488.53;4207527;28;5766;-62
2023/10/27 09:51:41;;;;;;;;;;;;;;;16.83;58.07;95482.13;4206926;28;5747;-69
2023/10/27 09:53:47;;;;;;;;;;;;;;;16.83;57.77;95493.59;4206354;28;6483;-66
2023/10/27 09:55:52;;;;;;;;;;;;;;;16.84;57.25;95484.50;4205417;28;5688;-65
2023/10/27 09:57:55;;;;;;;;;;;;;;;16.81;57.18;95487.72;4209629;28;5899;-68
2023/10/27 09:59:59;;;;;;;;;;;;;;;16.83;56.34;95485.59;4208111;28;5774;-67
2023/10/27 10:02:05;;;;;;;;;;;;;;;16.82;56.49;95481.31;4208392;28;5692;-67
2023/10/27 10:04:08;;;;;;;;;;;;;;;16.86;56.72;95474.38;4209547;28;5696;-63
2023/10/27 10:06:11;;;;;;;;;;;;;;;16.91;56.33;95476.25;4207082;28;5795;-63
2023/10/27 10:08:19;;;;;;;;;;;;;;;16.95;56.00;95476.53;4206925;28;5134;-62
2023/10/27 10:10:29;;;;;;;;;;;;;;;16.96;55.49;95467.44;4207451;28;5780;-64
2023/10/27 10:12:59;;;;;;;;;;;;;;;17.02;54.78;95466.41;4210360;28;5762;-64
2023/10/27 10:15:06;;;;;;;;;;;;;;;17.07;55.33;95471.72;4206360;28;5765;-62
2023/10/27 10:17:10;;;;;;;;;;;;;;;17.11;54.85;95465.63;4215951;28;5618;-61
2023/10/27 10:19:33;;;;;;;;;;;;;;;17.11;54.91;95456.81;4208146;28;5667;-62
2023/10/27 10:21:38;;;;;;;;;;;;;;;17.10;54.39;95452.50;4206713;28;5660;-61
2023/10/27 10:24:08;;;;;;;;;;;;;;;17.07;54.22;95455.72;4210441;28;5697;-61
2023/10/27 10:26:10;;;;;;;;;;;;;;;17.09;54.18;95454.38;4208309;28;5680;-61
2023/10/27 10:28:24;;;;;;;;;;;;;;;17.10;54.18;95452.50;4203404;28;5697;-62
2023/10/27 10:30:27;;;;;;;;;;;;;;;17.14;54.09;95443.72;4214334;28;5786;-62
2023/10/27 10:32:33;;;;;;;;;;;;;;;17.15;54.29;95444.50;4210008;28;5937;-61
2023/10/27 10:34:36;;;;;;;;;;;;;;;17.15;54.50;95453.31;4215410;28;5778;-60
2023/10/27 10:36:41;;;;;;;;;;;;;;;17.14;54.49;95440.25;4210217;28;5843;-62
2023/10/27 10:38:44;;;;;;;;;;;;;;;17.14;54.76;95451.72;4214351;28;5647;-62
2023/10/27 10:40:50;;;;;;;;;;;;;;;17.14;54.69;95453.59;4213615;28;5759;-62
2023/10/27 10:43:18;;;;;;;;;;;;;;;17.12;54.70;95448.53;4212373;28;5849;-62
2023/10/27 10:45:23;;;;;;;;;;;;;;;17.12;54.46;95434.38;4211865;28;5786;-62
2023/10/27 10:47:26;;;;;;;;;;;;;;;17.14;54.40;95440.25;4218859;28;5743;-61
2023/10/27 10:49:28;;;;;;;;;;;;;;;17.16;54.41;95440.78;4218475;28;5662;-61
2023/10/27 10:51:37;;;;;;;;;;;;;;;17.19;54.08;95432.22;4216935;28;5806;-61
2023/10/27 10:53:40;;;;;;;;;;;;;;;17.20;54.47;95433.81;4217770;28;5642;-61
2023/10/27 10:55:45;;;;;;;;;;;;;;;17.23;54.36;95429.84;4217239;28;5773;-61